Time;durP1;ratioP1;P1;durP2;ratioP2;P2;SDS_P1;SDS_P2;PMS_P1;PMS_P2;Temp;Humidity;BMP_temperature;BMP_pressure;BME280_temperature;BME280_humidity;BME280_pressure;Samples;Min_cycle;Max_cycle;Signal;HPM_P1;HPM_P2
2022/08/04 00:00:16;;;;;;;3.95;3.60;;;;;;;;;;4976424;28;20489;-75
2022/08/04 00:02:50;;;;;;;5.53;3.63;;;;;;;;;;4972397;28;20061;-73
2022/08/04 00:05:22;;;;;;;3.80;3.50;;;;;;;;;;4980582;28;20124;-72
2022/08/04 00:07:55;;;;;;;4.50;3.88;;;;;;;;;;4970736;28;20339;-73
2022/08/04 00:10:21;;;;;;;3.22;2.92;;;;;;;;;;4980237;28;20128;-75
2022/08/04 00:12:48;;;;;;;4.50;3.30;;;;;;;;;;4967995;28;20050;-72
2022/08/04 00:15:14;;;;;;;3.38;3.13;;;;;;;;;;4976203;28;20030;-73
2022/08/04 00:17:58;;;;;;;3.08;2.88;;;;;;;;;;4980066;28;20031;-73
2022/08/04 00:20:28;;;;;;;3.92;3.63;;;;;;;;;;4978818;28;20038;-72
2022/08/04 00:22:53;;;;;;;;;;;;;;;;;;4984785;28;20022;-73
2022/08/04 00:25:18;;;;;;;4.00;3.70;;;;;;;;;;4984190;28;20314;-73
2022/08/04 00:27:44;;;;;;;4.03;3.40;;;;;;;;;;4981257;28;20023;-75
2022/08/04 00:30:09;;;;;;;3.38;3.08;;;;;;;;;;4968873;28;20035;-74
2022/08/04 00:32:35;;;;;;;3.63;3.33;;;;;;;;;;4979664;28;20454;-74
2022/08/04 00:35:01;;;;;;;4.10;3.80;;;;;;;;;;4979787;28;20323;-73
2022/08/04 00:37:27;;;;;;;5.90;3.92;;;;;;;;;;4981861;28;20158;-73
2022/08/04 00:39:53;;;;;;;3.28;3.08;;;;;;;;;;4984887;28;20353;-73
2022/08/04 00:42:38;;;;;;;3.90;3.60;;;;;;;;;;4982966;28;20365;-73
2022/08/04 00:45:24;;;;;;;3.35;3.08;;;;;;;;;;4948248;28;20046;-74
2022/08/04 00:48:08;;;;;;;4.05;3.63;;;;;;;;;;4952130;28;20046;-72
2022/08/04 00:50:40;;;;;;;4.78;3.10;;;;;;;;;;4976835;28;20347;-73
2022/08/04 00:53:06;;;;;;;3.63;3.33;;;;;;;;;;4977276;28;20026;-72
2022/08/04 00:55:54;;;;;;;3.70;3.40;;;;;;;;;;4982808;28;20083;-72
2022/08/04 00:58:39;;;;;;;3.85;3.55;;;;;;;;;;4957982;28;20117;-73
2022/08/04 01:01:05;;;;;;;3.67;3.38;;;;;;;;;;4977566;28;20026;-72
2022/08/04 01:03:40;;;;;;;4.10;3.70;;;;;;;;;;4982698;28;20373;-72
2022/08/04 01:06:10;;;;;;;3.75;3.45;;;;;;;;;;4973110;28;20381;-73
2022/08/04 01:08:44;;;;;;;3.78;3.13;;;;;;;;;;4979945;28;20037;-72
2022/08/04 01:11:19;;;;;;;4.00;3.70;;;;;;;;;;4982521;28;20030;-74
2022/08/04 01:13:51;;;;;;;3.90;3.35;;;;;;;;;;4979624;28;20034;-72
2022/08/04 01:16:17;;;;;;;6.80;3.40;;;;;;;;;;4972478;28;20034;-72
2022/08/04 01:18:45;;;;;;;4.03;3.72;;;;;;;;;;4980069;28;20072;-73
2022/08/04 01:21:29;;;;;;;4.30;3.90;;;;;;;;;;4972981;28;20038;-75
2022/08/04 01:23:57;;;;;;;4.32;3.80;;;;;;;;;;4980707;28;20060;-72
2022/08/04 01:26:39;;;;;;;4.00;3.70;;;;;;;;;;4981741;28;20022;-73
2022/08/04 01:29:07;;;;;;;3.90;3.60;;;;;;;;;;4983777;28;20938;-72
2022/08/04 01:31:32;;;;;;;4.07;3.78;;;;;;;;;;4970849;28;20042;-73
2022/08/04 01:33:59;;;;;;;3.83;3.53;;;;;;;;;;4982443;28;20350;-72
2022/08/04 01:36:24;;;;;;;4.88;3.63;;;;;;;;;;4980743;28;20023;-74
2022/08/04 01:38:52;;;;;;;3.65;3.35;;;;;;;;;;4971344;28;20453;-73
2022/08/04 01:41:18;;;;;;;3.20;3.00;;;;;;;;;;4979118;28;20143;-72
2022/08/04 01:43:45;;;;;;;4.07;3.78;;;;;;;;;;4981077;28;20161;-72
2022/08/04 01:46:14;;;;;;;3.88;3.58;;;;;;;;;;4981174;28;20026;-73
2022/08/04 01:48:39;;;;;;;;;;;;;;;;;;4981028;28;20084;-72
2022/08/04 01:51:06;;;;;;;4.60;3.13;;;;;;;;;;4981125;28;20300;-72
2022/08/04 01:53:33;;;;;;;4.07;3.70;;;;;;;;;;4976239;28;20046;-73
2022/08/04 01:55:59;;;;;;;3.35;3.15;;;;;;;;;;4971754;28;20049;-72
2022/08/04 01:58:27;;;;;;;3.80;3.50;;;;;;;;;;4971643;28;20370;-73
2022/08/04 02:01:13;;;;;;;5.22;3.70;;;;;;;;;;4980779;28;20113;-73
2022/08/04 02:03:40;;;;;;;4.00;3.50;;;;;;;;;;4979817;28;20038;-72
2022/08/04 02:06:30;;;;;;;4.28;3.65;;;;;;;;;;4982071;28;20134;-73
2022/08/04 02:09:14;;;;;;;3.88;3.47;;;;;;;;;;4974809;28;20073;-73
2022/08/04 02:11:40;;;;;;;4.72;4.32;;;;;;;;;;4976211;28;20389;-73
2022/08/04 02:14:39;;;;;;;4.72;4.32;;;;;;;;;;4977977;28;20038;-74
2022/08/04 02:17:03;;;;;;;4.88;4.35;;;;;;;;;;4977794;28;20117;-74
2022/08/04 02:19:32;;;;;;;4.22;3.85;;;;;;;;;;4971756;28;20354;-73
2022/08/04 02:22:05;;;;;;;4.00;3.70;;;;;;;;;;4975202;28;20061;-72
2022/08/04 02:24:31;;;;;;;6.53;3.78;;;;;;;;;;4977423;28;20050;-73
2022/08/04 02:26:57;;;;;;;3.78;3.47;;;;;;;;;;4966065;28;20023;-72
2022/08/04 02:29:34;;;;;;;4.05;3.75;;;;;;;;;;4969489;28;20033;-72
2022/08/04 02:32:04;;;;;;;6.30;4.30;;;;;;;;;;4969295;28;20033;-74
2022/08/04 02:34:55;;;;;;;4.05;3.75;;;;;;;;;;4977343;28;20022;-72
2022/08/04 02:37:23;;;;;;;4.07;3.63;;;;;;;;;;4985571;28;20414;-72
2022/08/04 02:39:51;;;;;;;5.88;4.13;;;;;;;;;;4977187;28;20050;-74
2022/08/04 02:42:17;;;;;;;4.57;3.63;;;;;;;;;;4964474;28;20429;-73
2022/08/04 02:44:47;;;;;;;5.18;3.72;;;;;;;;;;4978261;28;20026;-73
2022/08/04 02:47:13;;;;;;;3.83;3.53;;;;;;;;;;4977241;28;20022;-74
2022/08/04 02:49:40;;;;;;;4.40;4.00;;;;;;;;;;4979211;28;20069;-73
2022/08/04 02:52:09;;;;;;;4.32;3.92;;;;;;;;;;4978577;28;20058;-72
2022/08/04 02:54:39;;;;;;;4.10;3.70;;;;;;;;;;4979399;28;20081;-73
2022/08/04 02:57:08;;;;;;;4.25;3.40;;;;;;;;;;4967875;28;20073;-73
2022/08/04 02:59:48;;;;;;;4.43;4.03;;;;;;;;;;4978459;28;20446;-74
2022/08/04 03:02:14;;;;;;;4.20;3.80;;;;;;;;;;4970282;28;20034;-73
2022/08/04 03:04:39;;;;;;;4.07;3.78;;;;;;;;;;4979821;28;20109;-73
2022/08/04 03:07:24;;;;;;;5.63;3.70;;;;;;;;;;4980173;28;20073;-77
2022/08/04 03:09:50;;;;;;;4.03;3.72;;;;;;;;;;4975236;28;20505;-74
2022/08/04 03:12:21;;;;;;;4.18;3.88;;;;;;;;;;4966038;28;20065;-74
2022/08/04 03:15:02;;;;;;;4.55;3.80;;;;;;;;;;4975565;28;20077;-73
2022/08/04 03:17:36;;;;;;;4.22;3.83;;;;;;;;;;4979384;28;20030;-73
2022/08/04 03:20:20;;;;;;;4.88;4.47;;;;;;;;;;4973788;28;20030;-72
2022/08/04 03:22:48;;;;;;;3.97;3.67;;;;;;;;;;4967646;28;20034;-73
2022/08/04 03:25:32;;;;;;;4.07;3.78;;;;;;;;;;4972303;28;20353;-74
2022/08/04 03:28:16;;;;;;;4.85;4.00;;;;;;;;;;4968142;28;20038;-74
2022/08/04 03:30:44;;;;;;;4.28;3.88;;;;;;;;;;4972679;28;20042;-73
2022/08/04 03:33:29;;;;;;;5.72;3.92;;;;;;;;;;4969919;28;20730;-73
2022/08/04 03:36:04;;;;;;;4.05;3.75;;;;;;;;;;4978398;28;20466;-73
2022/08/04 03:38:48;;;;;;;4.30;4.00;;;;;;;;;;4979641;28;20026;-73
2022/08/04 03:41:13;;;;;;;4.55;4.15;;;;;;;;;;4972350;28;21191;-73
2022/08/04 03:44:03;;;;;;;5.22;4.30;;;;;;;;;;4966183;28;20025;-73
2022/08/04 03:46:58;;;;;;;4.05;3.75;;;;;;;;;;4969333;28;20019;-73
2022/08/04 03:49:29;;;;;;;4.57;4.10;;;;;;;;;;4888342;29;20056;-75
2022/08/04 03:55:34;;;;;;;4.53;4.15;;;;;;;;;;4869753;29;20493;-74
2022/08/04 03:58:15;;;;;;;5.22;4.82;;;;;;;;;;4865154;29;20051;-74
2022/08/04 04:00:46;;;;;;;5.55;5.05;;;;;;;;;;4891821;29;20131;-75
2022/08/04 04:03:14;;;;;;;5.95;5.45;;;;;;;;;;4885516;29;21164;-73
2022/08/04 04:05:48;;;;;;;6.18;5.68;;;;;;;;;;4897216;29;20168;-72
2022/08/04 04:08:32;;;;;;;7.35;5.75;;;;;;;;;;4893590;29;20040;-73
2022/08/04 04:11:00;;;;;;;6.82;6.15;;;;;;;;;;4890636;29;20025;-72
2022/08/04 04:13:35;;;;;;;5.85;5.20;;;;;;;;;;4892923;29;20060;-72
2022/08/04 04:16:19;;;;;;;5.35;4.95;;;;;;;;;;4894494;29;20411;-73
2022/08/04 04:19:03;;;;;;;5.35;4.85;;;;;;;;;;4895524;29;20048;-72
2022/08/04 04:21:47;;;;;;;5.85;4.80;;;;;;;;;;4890280;29;20042;-72
2022/08/04 04:24:18;;;;;;;6.28;4.53;;;;;;;;;;4895876;29;20036;-71
2022/08/04 04:26:55;;;;;;;4.45;4.15;;;;;;;;;;4957755;28;20117;-71
2022/08/04 04:29:28;;;;;;;4.53;4.20;;;;;;;;;;4968076;28;20034;-71
2022/08/04 04:32:02;;;;;;;4.55;4.25;;;;;;;;;;4966291;28;20038;-73
2022/08/04 04:34:34;;;;;;;4.90;4.50;;;;;;;;;;4967601;28;20544;-72
2022/08/04 04:37:05;;;;;;;5.18;4.30;;;;;;;;;;4969185;28;20085;-71
2022/08/04 04:39:33;;;;;;;4.70;4.05;;;;;;;;;;4965814;28;20038;-71
2022/08/04 04:42:11;;;;;;;4.57;4.18;;;;;;;;;;4967034;28;20037;-70
2022/08/04 04:44:49;;;;;;;4.72;4.32;;;;;;;;;;4978031;28;20035;-71
2022/08/04 04:47:33;;;;;;;4.20;3.90;;;;;;;;;;4978999;28;20026;-72
2022/08/04 04:50:03;;;;;;;4.32;3.95;;;;;;;;;;4979435;28;20117;-71
2022/08/04 04:52:28;;;;;;;5.13;4.00;;;;;;;;;;4979269;28;20088;-70
2022/08/04 04:55:01;;;;;;;4.20;3.90;;;;;;;;;;4979906;28;20030;-71
2022/08/04 04:57:28;;;;;;;4.32;4.03;;;;;;;;;;4979607;28;20137;-71
2022/08/04 05:00:20;;;;;;;4.38;3.97;;;;;;;;;;4980098;28;20415;-71
2022/08/04 05:03:09;;;;;;;4.95;4.55;;;;;;;;;;4976035;28;20470;-70
2022/08/04 05:05:43;;;;;;;5.07;4.67;;;;;;;;;;4960609;28;20045;-70
2022/08/04 05:08:11;;;;;;;4.43;4.05;;;;;;;;;;4983489;28;20038;-71
2022/08/04 05:11:03;;;;;;;4.38;4.07;;;;;;;;;;4983221;28;20065;-72
2022/08/04 05:13:32;;;;;;;4.75;4.35;;;;;;;;;;4981587;28;20105;-70
2022/08/04 05:16:03;;;;;;;5.38;3.75;;;;;;;;;;4982803;28;20045;-72
2022/08/04 05:18:31;;;;;;;4.28;3.92;;;;;;;;;;4983451;28;20034;-70
2022/08/04 05:21:07;;;;;;;4.53;4.13;;;;;;;;;;4983514;28;20367;-72
2022/08/04 05:23:36;;;;;;;4.22;3.92;;;;;;;;;;4982954;28;20046;-70
2022/08/04 05:26:06;;;;;;;3.42;3.20;;;;;;;;;;4983410;28;20687;-70
2022/08/04 05:28:44;;;;;;;4.10;3.80;;;;;;;;;;4982679;28;20034;-71
2022/08/04 05:31:11;;;;;;;7.43;4.18;;;;;;;;;;4983040;28;20472;-69
2022/08/04 05:33:47;;;;;;;4.63;4.18;;;;;;;;;;4983182;28;20069;-72
2022/08/04 05:36:16;;;;;;;6.03;3.75;;;;;;;;;;4981304;28;20030;-71
2022/08/04 05:38:42;;;;;;;4.15;3.85;;;;;;;;;;4982600;28;20041;-70
2022/08/04 05:41:09;;;;;;;3.67;3.38;;;;;;;;;;4982710;28;20050;-70
2022/08/04 05:43:36;;;;;;;4.00;3.70;;;;;;;;;;4982245;28;20076;-70
2022/08/04 05:46:01;;;;;;;4.53;3.53;;;;;;;;;;4982379;28;20015;-70
2022/08/04 05:48:27;;;;;;;4.32;3.90;;;;;;;;;;4983174;28;20100;-71
2022/08/04 05:50:54;;;;;;;4.53;3.38;;;;;;;;;;4983787;28;20156;-70
2022/08/04 05:53:20;;;;;;;4.05;3.75;;;;;;;;;;4982723;28;20034;-70
2022/08/04 05:55:45;;;;;;;3.83;3.53;;;;;;;;;;4983309;28;20026;-70
2022/08/04 05:58:12;;;;;;;4.13;3.80;;;;;;;;;;4997282;28;20088;-71
2022/08/04 06:00:38;;;;;;;4.18;3.78;;;;;;;;;;4981516;28;20042;-70
2022/08/04 06:03:03;;;;;;;3.17;2.97;;;;;;;;;;4982181;28;20095;-73
2022/08/04 06:05:28;;;;;;;3.40;3.10;;;;;;;;;;4982365;28;20069;-71
2022/08/04 06:07:54;;;;;;;3.63;3.33;;;;;;;;;;4982086;28;20030;-70
2022/08/04 06:10:19;;;;;;;4.20;3.65;;;;;;;;;;4982796;28;20092;-71
2022/08/04 06:12:46;;;;;;;14.95;4.10;;;;;;;;;;4981051;28;20049;-71
2022/08/04 06:15:15;;;;;;;6.80;3.88;;;;;;;;;;4981310;28;20030;-71
2022/08/04 06:17:41;;;;;;;;;;;;;;;;;;4980727;28;20350;-70
2022/08/04 06:20:07;;;;;;;3.77;3.43;;;;;;;;;;4982910;28;20364;-71
2022/08/04 06:22:33;;;;;;;3.55;3.25;;;;;;;;;;4981532;28;20156;-71
2022/08/04 06:24:59;;;;;;;5.22;3.30;;;;;;;;;;4981572;28;20377;-71
2022/08/04 06:27:25;;;;;;;3.95;3.60;;;;;;;;;;4980785;28;20028;-72
2022/08/04 06:29:51;;;;;;;5.03;3.72;;;;;;;;;;4982664;28;20033;-71
2022/08/04 06:32:25;;;;;;;3.47;3.17;;;;;;;;;;4980554;28;20087;-73
2022/08/04 06:34:56;;;;;;;3.30;3.00;;;;;;;;;;4982200;28;20029;-71
2022/08/04 06:37:22;;;;;;;3.55;3.25;;;;;;;;;;4981759;28;20037;-72
2022/08/04 06:39:48;;;;;;;3.30;3.10;;;;;;;;;;4981134;28;20050;-71
2022/08/04 06:42:14;;;;;;;4.10;3.78;;;;;;;;;;4981846;28;20034;-71
2022/08/04 06:44:41;;;;;;;3.72;3.42;;;;;;;;;;4980767;28;20032;-72
2022/08/04 06:47:06;;;;;;;3.55;3.08;;;;;;;;;;4980242;28;20402;-70
2022/08/04 06:49:32;;;;;;;5.97;3.50;;;;;;;;;;4981766;28;20121;-73
2022/08/04 06:51:58;;;;;;;3.55;3.25;;;;;;;;;;4979918;28;20354;-71
2022/08/04 06:54:25;;;;;;;3.65;3.35;;;;;;;;;;4980382;28;20070;-72
2022/08/04 06:56:52;;;;;;;4.65;3.33;;;;;;;;;;4980782;28;20165;-70
2022/08/04 06:59:18;;;;;;;3.60;3.30;;;;;;;;;;4980875;28;20172;-71
2022/08/04 07:01:44;;;;;;;3.33;3.03;;;;;;;;;;4981578;28;20041;-71
2022/08/04 07:04:10;;;;;;;5.78;3.08;;;;;;;;;;4981185;28;20049;-70
2022/08/04 07:06:35;;;;;;;3.50;3.20;;;;;;;;;;4981640;28;20066;-71
2022/08/04 07:09:01;;;;;;;4.40;3.45;;;;;;;;;;4981586;28;20031;-70
2022/08/04 07:11:27;;;;;;;3.50;3.20;;;;;;;;;;4980692;28;20030;-70
2022/08/04 07:13:53;;;;;;;6.30;3.05;;;;;;;;;;4980765;28;20038;-71
2022/08/04 07:16:19;;;;;;;3.65;3.33;;;;;;;;;;4981087;28;21126;-71
2022/08/04 07:18:45;;;;;;;3.95;3.58;;;;;;;;;;4980111;28;20073;-71
2022/08/04 07:21:16;;;;;;;3.90;3.30;;;;;;;;;;4980393;28;20069;-71
2022/08/04 07:23:44;;;;;;;3.38;3.05;;;;;;;;;;4981173;28;20022;-71
2022/08/04 07:26:09;;;;;;;6.85;3.90;;;;;;;;;;4980202;28;20065;-71
2022/08/04 07:28:35;;;;;;;3.38;3.08;;;;;;;;;;4981176;28;20050;-71
2022/08/04 07:31:01;;;;;;;3.40;3.10;;;;;;;;;;4981504;28;20038;-70
2022/08/04 07:33:26;;;;;;;3.28;3.03;;;;;;;;;;4981557;28;20031;-71
2022/08/04 07:35:55;;;;;;;3.47;3.17;;;;;;;;;;4981199;28;20045;-72
2022/08/04 07:38:20;;;;;;;;;;;;;;;;;;4981092;28;20025;-72
2022/08/04 07:40:46;;;;;;;3.20;2.90;;;;;;;;;;4980466;28;19940;-71
2022/08/04 07:43:13;;;;;;;4.35;3.03;;;;;;;;;;4979343;28;20362;-72
2022/08/04 07:45:39;;;;;;;5.80;3.15;;;;;;;;;;4980166;28;20045;-73
2022/08/04 07:48:05;;;;;;;4.45;3.30;;;;;;;;;;4981179;28;20018;-73
2022/08/04 07:50:31;;;;;;;4.18;2.88;;;;;;;;;;4980681;28;20038;-70
2022/08/04 07:52:56;;;;;;;3.25;2.80;;;;;;;;;;4981416;28;20029;-74
2022/08/04 07:55:22;;;;;;;3.67;2.80;;;;;;;;;;4980280;28;20674;-72
2022/08/04 07:57:47;;;;;;;3.00;2.80;;;;;;;;;;4979929;28;20445;-71
2022/08/04 08:00:13;;;;;;;4.82;2.53;;;;;;;;;;4980714;28;20069;-71
2022/08/04 08:02:40;;;;;;;3.35;3.15;;;;;;;;;;4979638;28;20588;-74
2022/08/04 08:05:06;;;;;;;4.55;3.25;;;;;;;;;;4979753;28;20492;-73
2022/08/04 08:07:32;;;;;;;2.60;2.40;;;;;;;;;;4980416;28;20019;-71
2022/08/04 08:09:58;;;;;;;5.30;2.88;;;;;;;;;;4980320;28;20031;-71
2022/08/04 08:12:23;;;;;;;4.20;2.60;;;;;;;;;;4980323;28;20018;-72
2022/08/04 08:14:49;;;;;;;6.25;2.80;;;;;;;;;;4980837;28;20030;-72
2022/08/04 08:17:14;;;;;;;3.33;2.60;;;;;;;;;;4980303;28;20033;-72
2022/08/04 08:19:39;;;;;;;7.28;2.60;;;;;;;;;;4980001;28;20062;-74
2022/08/04 08:22:05;;;;;;;4.63;2.97;;;;;;;;;;4980387;28;20088;-72
2022/08/04 08:24:33;;;;;;;3.53;2.47;;;;;;;;;;4980982;28;20034;-71
2022/08/04 08:27:00;;;;;;;3.67;2.73;;;;;;;;;;4980122;28;20497;-72
2022/08/04 08:29:26;;;;;;;2.40;2.20;;;;;;;;;;4981107;28;20775;-74
2022/08/04 08:31:51;;;;;;;3.25;2.55;;;;;;;;;;4980332;28;20125;-72
2022/08/04 08:34:17;;;;;;;5.38;2.65;;;;;;;;;;4980024;28;20431;-71
2022/08/04 08:36:47;;;;;;;3.10;2.38;;;;;;;;;;4979837;28;20042;-71
2022/08/04 08:39:34;;;;;;;11.68;3.15;;;;;;;;;;4980613;28;20073;-71
2022/08/04 08:42:08;;;;;;;2.40;2.20;;;;;;;;;;4945663;28;20043;-73
2022/08/04 08:44:46;;;;;;;3.10;2.60;;;;;;;;;;4945030;29;20062;-73
2022/08/04 08:47:17;;;;;;;3.90;2.50;;;;;;;;;;4946153;28;20023;-73
2022/08/04 08:49:42;;;;;;;3.03;2.50;;;;;;;;;;4946038;29;20035;-72
2022/08/04 08:52:17;;;;;;;3.08;2.30;;;;;;;;;;4946356;29;20028;-72
2022/08/04 08:55:01;;;;;;;2.40;2.20;;;;;;;;;;4946892;29;20027;-72
2022/08/04 08:57:26;;;;;;;2.38;2.17;;;;;;;;;;4946145;29;20098;-71
2022/08/04 09:00:02;;;;;;;2.38;2.10;;;;;;;;;;4946357;29;20066;-73
2022/08/04 09:02:36;;;;;;;2.42;2.22;;;;;;;;;;4945935;28;20038;-73
2022/08/04 09:05:17;;;;;;;3.13;2.42;;;;;;;;;;4946899;29;20023;-72
2022/08/04 09:07:52;;;;;;;7.68;2.72;;;;;;;;;;4946821;29;20031;-75
2022/08/04 09:10:25;;;;;;;2.67;2.45;;;;;;;;;;4945940;29;20386;-70
2022/08/04 09:12:59;;;;;;;3.58;2.25;;;;;;;;;;4946781;28;20118;-75
2022/08/04 09:15:24;;;;;;;2.50;2.10;;;;;;;;;;4946267;29;20019;-74
2022/08/04 09:17:56;;;;;;;2.53;2.28;;;;;;;;;;4944032;29;20023;-72
2022/08/04 09:20:29;;;;;;;2.10;1.98;;;;;;;;;;4944836;29;20037;-71
2022/08/04 09:23:03;;;;;;;2.53;2.13;;;;;;;;;;4946815;28;20039;-72
2022/08/04 09:25:33;;;;;;;2.47;2.15;;;;;;;;;;4946247;29;20023;-70
2022/08/04 09:28:01;;;;;;;2.58;2.35;;;;;;;;;;4945635;29;20443;-71
2022/08/04 09:30:42;;;;;;;3.00;2.10;;;;;;;;;;4945794;28;20023;-74
2022/08/04 09:33:28;;;;;;;2.55;2.35;;;;;;;;;;4946702;28;20031;-72
2022/08/04 09:36:00;;;;;;;2.38;2.17;;;;;;;;;;4943864;29;20031;-73
2022/08/04 09:38:29;;;;;;;3.50;2.35;;;;;;;;;;4946225;29;20039;-71
2022/08/04 09:41:03;;;;;;;2.15;1.98;;;;;;;;;;4972026;28;20050;-72
2022/08/04 09:43:40;;;;;;;2.42;2.22;;;;;;;;;;4983996;28;20023;-72
2022/08/04 09:46:13;;;;;;;2.60;2.40;;;;;;;;;;4984101;28;20022;-72
2022/08/04 09:48:42;;;;;;;2.50;2.30;;;;;;;;;;4984271;28;20029;-72
2022/08/04 09:51:24;;;;;;;3.60;2.38;;;;;;;;;;4983518;28;20030;-71
2022/08/04 09:54:26;;;;;;;3.70;2.20;;;;;;;;;;4983863;28;20031;-72
2022/08/04 09:56:57;;;;;;;2.65;2.10;;;;;;;;;;4923543;29;20345;-73
2022/08/04 09:59:25;;;;;;;2.45;2.28;;;;;;;;;;4923598;29;20047;-75
2022/08/04 10:01:53;;;;;;;2.08;1.90;;;;;;;;;;4924598;29;20182;-72
2022/08/04 10:04:19;;;;;;;2.00;1.85;;;;;;;;;;4924265;29;20371;-73
2022/08/04 10:07:07;;;;;;;2.20;2.00;;;;;;;;;;4924205;29;20031;-71
2022/08/04 10:09:41;;;;;;;4.63;2.22;;;;;;;;;;4913647;29;20052;-75
2022/08/04 10:12:16;;;;;;;2.95;2.10;;;;;;;;;;4924629;29;20075;-71
2022/08/04 10:15:05;;;;;;;2.35;1.98;;;;;;;;;;4924268;29;20028;-73
2022/08/04 10:17:31;;;;;;;1.60;1.50;;;;;;;;;;4923755;29;20112;-75
2022/08/04 10:20:22;;;;;;;2.35;2.00;;;;;;;;;;4923787;29;20036;-72
2022/08/04 10:22:56;;;;;;;2.00;1.90;;;;;;;;;;4896476;29;20122;-72
2022/08/04 10:25:21;;;;;;;3.65;2.10;;;;;;;;;;4922833;29;20360;-72
2022/08/04 10:27:57;;;;;;;2.20;2.00;;;;;;;;;;4924119;29;20072;-71
2022/08/04 10:30:23;;;;;;;3.13;2.17;;;;;;;;;;4941440;28;20469;-72
2022/08/04 10:32:54;;;;;;;2.50;2.30;;;;;;;;;;4984443;28;20026;-71
2022/08/04 10:35:25;;;;;;;5.07;1.80;;;;;;;;;;4983391;28;20030;-73
2022/08/04 10:38:03;;;;;;;2.85;2.03;;;;;;;;;;4980910;28;20434;-73
2022/08/04 10:40:49;;;;;;;2.30;2.20;;;;;;;;;;4983173;28;20058;-71
2022/08/04 10:43:24;;;;;;;3.17;2.00;;;;;;;;;;4981982;28;20041;-75
2022/08/04 10:45:52;;;;;;;2.42;2.22;;;;;;;;;;4983240;28;20376;-72
2022/08/04 10:48:17;;;;;;;2.27;1.53;;;;;;;;;;4982921;28;20104;-73
2022/08/04 10:50:47;;;;;;;2.33;2.07;;;;;;;;;;4983605;28;20522;-72
2022/08/04 10:53:17;;;;;;;2.40;2.20;;;;;;;;;;4982307;28;20283;-73
2022/08/04 10:55:58;;;;;;;2.20;2.00;;;;;;;;;;4982404;28;20049;-73
2022/08/04 10:58:26;;;;;;;2.40;2.30;;;;;;;;;;4982157;28;20434;-72
2022/08/04 11:00:55;;;;;;;1.90;1.80;;;;;;;;;;4983393;28;20109;-75
2022/08/04 11:03:21;;;;;;;2.92;2.53;;;;;;;;;;4982926;28;20109;-72
2022/08/04 11:05:49;;;;;;;1.85;1.70;;;;;;;;;;4982122;28;20117;-73
2022/08/04 11:08:17;;;;;;;2.47;2.05;;;;;;;;;;4982009;28;20026;-73
2022/08/04 11:10:47;;;;;;;2.85;2.00;;;;;;;;;;4982896;28;20074;-75
2022/08/04 11:13:15;;;;;;;1.73;1.60;;;;;;;;;;4982541;28;20434;-71
2022/08/04 11:15:44;;;;;;;7.63;1.90;;;;;;;;;;4982595;28;20433;-72
2022/08/04 11:18:12;;;;;;;2.80;1.65;;;;;;;;;;4980336;28;20363;-74
2022/08/04 11:20:42;;;;;;;5.80;2.30;;;;;;;;;;4981689;28;20379;-73
2022/08/04 11:23:14;;;;;;;1.55;1.45;;;;;;;;;;4981053;28;20379;-74
2022/08/04 11:25:58;;;;;;;2.10;2.00;;;;;;;;;;4982938;28;20058;-73
2022/08/04 11:28:29;;;;;;;1.58;1.50;;;;;;;;;;4983238;28;20050;-73
2022/08/04 11:30:54;;;;;;;1.48;1.40;;;;;;;;;;4983173;28;20029;-73
2022/08/04 11:33:22;;;;;;;1.63;1.53;;;;;;;;;;4982384;28;21129;-75
2022/08/04 11:35:50;;;;;;;1.98;1.73;;;;;;;;;;4981753;28;20686;-74
2022/08/04 11:38:16;;;;;;;;;;;;;;;;;;4982332;28;20465;-73
2022/08/04 11:40:42;;;;;;;1.95;1.75;;;;;;;;;;4982848;28;19921;-72
2022/08/04 11:43:12;;;;;;;2.92;1.65;;;;;;;;;;4982666;28;20405;-73
2022/08/04 11:45:46;;;;;;;1.38;1.27;;;;;;;;;;4981657;28;20117;-74
2022/08/04 11:48:28;;;;;;;2.05;1.80;;;;;;;;;;4981818;28;20399;-77
2022/08/04 11:50:55;;;;;;;1.90;1.80;;;;;;;;;;4981066;28;20324;-71
2022/08/04 11:53:22;;;;;;;3.47;1.77;;;;;;;;;;4982153;28;20096;-73
2022/08/04 11:55:51;;;;;;;1.30;1.20;;;;;;;;;;4982631;28;20033;-72
2022/08/04 11:58:17;;;;;;;1.70;1.60;;;;;;;;;;4980189;28;20086;-77
2022/08/04 12:01:02;;;;;;;2.65;1.40;;;;;;;;;;4982231;28;20523;-73
2022/08/04 12:03:31;;;;;;;1.60;1.50;;;;;;;;;;4979750;28;20046;-74
2022/08/04 12:06:17;;;;;;;1.45;1.35;;;;;;;;;;4982134;28;20135;-75
2022/08/04 12:09:01;;;;;;;1.45;1.35;;;;;;;;;;4981176;28;20450;-75
2022/08/04 12:11:33;;;;;;;1.50;1.40;;;;;;;;;;4982574;28;20037;-75
2022/08/04 12:13:59;;;;;;;2.17;1.60;;;;;;;;;;4980568;28;20038;-73
2022/08/04 12:16:28;;;;;;;1.60;1.50;;;;;;;;;;4980642;28;20029;-72
2022/08/04 12:18:59;;;;;;;2.05;1.67;;;;;;;;;;4980998;28;20280;-74
2022/08/04 12:21:25;;;;;;;2.05;1.60;;;;;;;;;;4981676;28;20098;-72
2022/08/04 12:23:52;;;;;;;2.20;1.53;;;;;;;;;;4981685;28;20510;-75
2022/08/04 12:26:22;;;;;;;1.50;1.40;;;;;;;;;;4981093;28;20294;-75
2022/08/04 12:28:48;;;;;;;1.63;1.52;;;;;;;;;;4981663;28;20031;-72
2022/08/04 12:31:18;;;;;;;1.58;1.33;;;;;;;;;;4981490;28;20030;-77
2022/08/04 12:33:54;;;;;;;1.30;1.20;;;;;;;;;;4981843;28;20058;-74
2022/08/04 12:36:23;;;;;;;1.60;1.50;;;;;;;;;;4982893;28;20454;-72
2022/08/04 12:38:56;;;;;;;1.50;1.40;;;;;;;;;;4981012;28;20097;-78
2022/08/04 12:41:23;;;;;;;1.23;1.20;;;;;;;;;;4980980;28;20093;-72
2022/08/04 12:43:49;;;;;;;2.13;1.60;;;;;;;;;;4981573;28;20030;-75
2022/08/04 12:46:33;;;;;;;2.97;1.60;;;;;;;;;;4982165;28;20357;-75
2022/08/04 12:49:00;;;;;;;1.42;1.33;;;;;;;;;;4981762;28;20030;-74
2022/08/04 12:51:26;;;;;;;1.50;1.40;;;;;;;;;;4981134;28;20026;-73
2022/08/04 12:53:52;;;;;;;1.60;1.50;;;;;;;;;;4982017;28;20114;-73
2022/08/04 12:56:23;;;;;;;1.67;1.30;;;;;;;;;;4981068;28;20418;-75
2022/08/04 12:58:51;;;;;;;2.70;1.50;;;;;;;;;;4981169;28;20026;-73
2022/08/04 13:01:17;;;;;;;1.77;1.60;;;;;;;;;;4981711;28;20042;-73
2022/08/04 13:03:46;;;;;;;1.60;1.50;;;;;;;;;;4980060;28;20440;-72
2022/08/04 13:06:11;;;;;;;;;;;;;;;;;;4980537;28;20448;-72
2022/08/04 13:08:41;;;;;;;2.03;1.83;;;;;;;;;;4979201;28;19997;-73
2022/08/04 13:11:07;;;;;;;3.17;1.73;;;;;;;;;;4971175;28;20026;-73
2022/08/04 13:13:34;;;;;;;1.85;1.63;;;;;;;;;;4981291;28;20406;-73
2022/08/04 13:16:04;;;;;;;1.70;1.60;;;;;;;;;;4982300;28;20133;-74
2022/08/04 13:18:31;;;;;;;1.60;1.50;;;;;;;;;;4972511;28;20450;-74
2022/08/04 13:21:07;;;;;;;1.50;1.40;;;;;;;;;;4964365;28;20069;-75
2022/08/04 13:23:33;;;;;;;1.92;1.63;;;;;;;;;;4965633;28;20365;-75
2022/08/04 13:25:58;;;;;;;1.70;1.60;;;;;;;;;;4966996;28;20037;-75
2022/08/04 13:28:25;;;;;;;1.63;1.52;;;;;;;;;;4969404;28;20022;-73
2022/08/04 13:31:05;;;;;;;1.83;1.70;;;;;;;;;;4969662;28;20062;-76
2022/08/04 13:33:32;;;;;;;11.05;2.22;;;;;;;;;;4969432;28;20049;-74
2022/08/04 13:35:58;;;;;;;1.90;1.80;;;;;;;;;;4970373;28;20053;-73
2022/08/04 13:38:24;;;;;;;4.30;1.55;;;;;;;;;;4970186;28;20030;-73
2022/08/04 13:40:50;;;;;;;1.98;1.73;;;;;;;;;;4965005;28;20054;-73
2022/08/04 13:43:24;;;;;;;1.60;1.50;;;;;;;;;;4969350;28;20030;-73
2022/08/04 13:45:49;;;;;;;1.40;1.40;;;;;;;;;;4970295;28;20026;-72
2022/08/04 13:48:15;;;;;;;2.65;1.77;;;;;;;;;;4970540;28;20018;-73
2022/08/04 13:50:44;;;;;;;1.70;1.60;;;;;;;;;;4975559;28;20458;-74
2022/08/04 13:53:10;;;;;;;1.98;1.88;;;;;;;;;;4983192;28;20476;-73
2022/08/04 13:55:36;;;;;;;2.00;1.80;;;;;;;;;;4982305;28;20018;-73
2022/08/04 13:58:22;;;;;;;1.95;1.48;;;;;;;;;;4983148;28;20458;-73
2022/08/04 14:00:58;;;;;;;1.88;1.77;;;;;;;;;;4974038;28;20093;-73
2022/08/04 14:03:26;;;;;;;2.50;1.60;;;;;;;;;;4983901;28;21041;-72
2022/08/04 14:06:11;;;;;;;1.73;1.52;;;;;;;;;;4983750;28;20454;-74
2022/08/04 14:08:44;;;;;;;3.42;1.98;;;;;;;;;;4984337;28;20341;-73
2022/08/04 14:11:09;;;;;;;1.70;1.60;;;;;;;;;;4972654;28;20331;-74
2022/08/04 14:13:35;;;;;;;3.53;2.10;;;;;;;;;;4983359;28;20033;-72
2022/08/04 14:16:00;;;;;;;1.98;1.75;;;;;;;;;;4984040;28;20030;-76
2022/08/04 14:18:31;;;;;;;4.72;1.88;;;;;;;;;;4983587;28;20504;-72
2022/08/04 14:20:57;;;;;;;1.85;1.75;;;;;;;;;;4972664;28;20038;-73
2022/08/04 14:23:23;;;;;;;1.83;1.73;;;;;;;;;;4965417;28;20413;-71
2022/08/04 14:25:48;;;;;;;1.98;1.88;;;;;;;;;;4976385;28;20030;-73
2022/08/04 14:28:25;;;;;;;1.80;1.70;;;;;;;;;;4973993;28;20121;-72
2022/08/04 14:30:51;;;;;;;2.10;2.00;;;;;;;;;;4969598;28;20030;-74
2022/08/04 14:33:17;;;;;;;2.15;1.98;;;;;;;;;;4977497;28;20393;-73
2022/08/04 14:35:54;;;;;;;3.50;1.80;;;;;;;;;;4973642;28;20011;-73
2022/08/04 14:38:20;;;;;;;1.95;1.85;;;;;;;;;;4968463;28;20026;-76
2022/08/04 14:40:45;;;;;;;1.92;1.45;;;;;;;;;;4962438;28;20369;-73
2022/08/04 14:43:15;;;;;;;2.13;1.98;;;;;;;;;;4971979;28;20030;-75
2022/08/04 14:45:42;;;;;;;4.97;1.70;;;;;;;;;;4975906;28;20038;-73
2022/08/04 14:48:08;;;;;;;1.98;1.77;;;;;;;;;;4962305;28;20045;-72
2022/08/04 14:50:33;;;;;;;1.85;1.73;;;;;;;;;;4962056;28;20034;-72
2022/08/04 14:53:03;;;;;;;3.10;1.90;;;;;;;;;;4966524;28;20040;-72
2022/08/04 14:55:29;;;;;;;2.88;1.92;;;;;;;;;;4973788;28;20050;-74
2022/08/04 14:57:54;;;;;;;2.35;1.80;;;;;;;;;;4976676;28;20069;-73
2022/08/04 15:00:24;;;;;;;1.80;1.70;;;;;;;;;;4965424;28;20373;-72
2022/08/04 15:02:50;;;;;;;3.97;1.83;;;;;;;;;;4967361;28;20118;-72
2022/08/04 15:05:15;;;;;;;2.22;1.90;;;;;;;;;;4975199;28;20194;-72
2022/08/04 15:07:41;;;;;;;2.35;2.08;;;;;;;;;;4969732;28;20045;-72
2022/08/04 15:10:06;;;;;;;2.10;2.00;;;;;;;;;;4978400;28;20578;-74